Time;durP1;ratioP1;P1;durP2;ratioP2;P2;SDS_P1;SDS_P2;PMS_P1;PMS_P2;Temp;Humidity;BMP_temperature;BMP_pressure;BME280_temperature;BME280_humidity;BME280_pressure;Samples;Min_cycle;Max_cycle;Signal;HPM_P1;HPM_P2
2024/01/30 00:01:57;;;;;;;5.55;4.10;;;5.80;99.90;;;;;;501986;236;27463;-71
2024/01/30 00:03:58;;;;;;;4.95;4.45;;;5.80;99.90;;;;;;502041;236;27334;-71
2024/01/30 00:05:59;;;;;;;4.45;4.05;;;5.70;99.90;;;;;;502060;236;27895;-71
2024/01/30 00:08:01;;;;;;;4.35;3.95;;;5.80;99.90;;;;;;502089;236;27869;-72
2024/01/30 00:10:02;;;;;;;5.60;4.30;;;5.80;99.90;;;;;;502095;236;27795;-71
2024/01/30 00:12:03;;;;;;;7.07;4.57;;;5.70;99.90;;;;;;501937;237;27404;-72
2024/01/30 00:14:04;;;;;;;5.70;3.83;;;5.70;99.90;;;;;;502114;236;27396;-72
2024/01/30 00:16:06;;;;;;;7.70;4.10;;;5.70;99.90;;;;;;502043;236;27445;-71
2024/01/30 00:18:07;;;;;;;5.35;4.20;;;5.70;99.90;;;;;;502048;237;27413;-72
2024/01/30 00:20:09;;;;;;;7.32;3.92;;;5.60;99.90;;;;;;502065;236;27330;-71
2024/01/30 00:22:09;;;;;;;8.85;4.37;;;5.60;99.90;;;;;;502064;236;27928;-70
2024/01/30 00:24:11;;;;;;;5.10;4.55;;;5.60;99.90;;;;;;502112;236;27967;-73
2024/01/30 00:26:12;;;;;;;6.30;4.47;;;5.70;99.90;;;;;;502064;236;27330;-71
2024/01/30 00:28:13;;;;;;;6.75;4.40;;;5.80;99.90;;;;;;502078;236;27468;-72
2024/01/30 00:30:14;;;;;;;5.32;4.03;;;5.70;99.90;;;;;;502052;236;27445;-71
2024/01/30 00:32:16;;;;;;;4.50;3.90;;;5.70;99.90;;;;;;502072;236;27334;-71
2024/01/30 00:34:17;;;;;;;3.95;3.60;;;5.70;99.90;;;;;;502101;236;27368;-71
2024/01/30 00:36:18;;;;;;;4.85;4.28;;;5.70;99.90;;;;;;502025;236;28707;-71
2024/01/30 00:38:20;;;;;;;7.75;3.75;;;5.70;99.90;;;;;;502075;236;27851;-72
2024/01/30 00:40:21;;;;;;;7.72;4.05;;;5.60;99.90;;;;;;501985;236;27350;-72
2024/01/30 00:42:23;;;;;;;5.25;3.83;;;5.70;99.90;;;;;;502096;236;27334;-72
2024/01/30 00:44:23;;;;;;;4.68;4.22;;;5.70;99.90;;;;;;502008;237;27373;-71
2024/01/30 00:46:25;;;;;;;4.90;4.07;;;5.60;99.90;;;;;;502023;237;27386;-71
2024/01/30 00:48:26;;;;;;;5.35;4.68;;;5.60;99.90;;;;;;502057;236;27362;-71
2024/01/30 00:50:27;;;;;;;4.80;4.30;;;5.60;99.90;;;;;;502114;236;27357;-74
2024/01/30 00:52:28;;;;;;;4.37;3.95;;;5.70;99.90;;;;;;502063;236;27803;-71
2024/01/30 00:54:30;;;;;;;7.90;4.55;;;5.70;99.90;;;;;;502085;237;27951;-72
2024/01/30 00:56:31;;;;;;;9.02;4.62;;;5.60;99.90;;;;;;502042;236;27318;-71
2024/01/30 00:58:32;;;;;;;6.03;4.60;;;5.60;99.90;;;;;;502088;236;27341;-71
2024/01/30 01:00:33;;;;;;;10.85;4.97;;;5.60;99.90;;;;;;502098;236;27378;-73
2024/01/30 01:02:35;;;;;;;6.97;4.53;;;5.60;99.90;;;;;;502089;236;27377;-71
2024/01/30 01:04:36;;;;;;;5.47;4.20;;;5.50;99.90;;;;;;502040;237;27401;-72
2024/01/30 01:06:37;;;;;;;5.43;4.85;;;5.60;99.90;;;;;;502017;236;27913;-71
2024/01/30 01:08:38;;;;;;;8.93;5.20;;;5.60;99.90;;;;;;501919;236;27809;-71
2024/01/30 01:10:40;;;;;;;9.75;5.97;;;5.60;99.90;;;;;;502022;236;27457;-71
2024/01/30 01:12:41;;;;;;;9.13;6.10;;;5.60;99.90;;;;;;501949;236;27520;-71
2024/01/30 01:14:42;;;;;;;10.23;5.93;;;5.60;99.90;;;;;;502015;237;27528;-71
2024/01/30 01:16:44;;;;;;;12.82;6.80;;;5.70;99.90;;;;;;502038;236;27804;-74
2024/01/30 01:18:45;;;;;;;10.82;6.85;;;5.70;99.90;;;;;;502068;236;27374;-71
2024/01/30 01:20:46;;;;;;;13.68;7.03;;;5.80;99.90;;;;;;502040;236;27899;-72
2024/01/30 01:22:47;;;;;;;11.43;6.95;;;5.80;99.90;;;;;;502001;236;27935;-71
2024/01/30 01:24:48;;;;;;;8.75;6.10;;;5.90;99.90;;;;;;502090;236;27353;-71
2024/01/30 01:26:50;;;;;;;10.90;6.47;;;6.00;99.90;;;;;;502078;236;27452;-73
2024/01/30 01:28:51;;;;;;;12.63;6.50;;;6.10;99.90;;;;;;502091;236;27333;-71
2024/01/30 01:30:52;;;;;;;7.40;5.18;;;6.20;99.90;;;;;;502088;236;27376;-71
2024/01/30 01:32:59;;;;;;;10.88;5.87;;;6.30;99.90;;;;;;502067;236;28772;-71
2024/01/30 01:34:58;;;;;;;10.40;6.12;;;6.30;99.90;;;;;;501896;237;27357;-73
2024/01/30 01:36:59;;;;;;;7.28;5.15;;;6.30;99.90;;;;;;502071;236;27814;-71
2024/01/30 01:39:00;;;;;;;7.45;5.30;;;6.30;99.90;;;;;;502121;236;27965;-72
2024/01/30 01:41:01;;;;;;;8.05;5.18;;;6.20;99.90;;;;;;502108;236;27400;-71
2024/01/30 01:43:03;;;;;;;8.05;4.80;;;6.20;99.90;;;;;;502130;236;27437;-72
2024/01/30 01:45:04;;;;;;;5.40;4.40;;;6.30;99.90;;;;;;502111;236;27473;-72
2024/01/30 01:47:05;;;;;;;6.37;4.60;;;6.30;99.90;;;;;;502091;236;27338;-71
2024/01/30 01:49:07;;;;;;;5.15;4.00;;;6.40;99.90;;;;;;502109;236;27369;-71
2024/01/30 01:51:08;;;;;;;11.93;5.15;;;6.40;99.90;;;;;;502140;236;28550;-71
2024/01/30 01:53:09;;;;;;;5.62;4.72;;;6.20;99.90;;;;;;502118;237;27881;-71
2024/01/30 01:55:10;;;;;;;7.18;5.00;;;6.20;99.90;;;;;;502105;236;27397;-73
2024/01/30 01:57:12;;;;;;;5.45;4.32;;;6.40;99.90;;;;;;502111;236;27381;-71
2024/01/30 01:59:13;;;;;;;6.30;4.82;;;6.40;99.90;;;;;;502086;236;27411;-71
2024/01/30 02:01:14;;;;;;;9.85;4.90;;;6.40;99.90;;;;;;502133;236;27372;-73
2024/01/30 02:03:15;;;;;;;5.85;4.40;;;6.40;99.90;;;;;;502145;236;27814;-71
2024/01/30 02:05:17;;;;;;;6.15;4.57;;;6.40;99.90;;;;;;502114;236;27873;-71
2024/01/30 02:07:18;;;;;;;6.50;4.10;;;6.30;99.90;;;;;;502140;236;27326;-71
2024/01/30 02:09:19;;;;;;;7.00;4.85;;;6.40;99.90;;;;;;502119;236;27460;-71
2024/01/30 02:11:20;;;;;;;10.00;4.22;;;6.60;99.90;;;;;;502154;237;27365;-74
2024/01/30 02:13:22;;;;;;;8.63;4.35;;;6.60;99.90;;;;;;502113;236;27417;-71
2024/01/30 02:15:23;;;;;;;11.25;4.57;;;6.50;99.90;;;;;;502069;237;27397;-71
2024/01/30 02:17:24;;;;;;;5.37;4.65;;;6.50;99.90;;;;;;502135;236;28624;-71
2024/01/30 02:19:25;;;;;;;6.95;4.85;;;6.50;99.90;;;;;;502137;236;27385;-71
2024/01/30 02:21:27;;;;;;;6.40;4.18;;;6.60;99.90;;;;;;502133;236;27448;-72
2024/01/30 02:23:28;;;;;;;8.20;4.57;;;6.50;99.90;;;;;;502109;236;27416;-71
2024/01/30 02:25:29;;;;;;;7.43;4.35;;;6.50;99.90;;;;;;502067;236;27401;-71
2024/01/30 02:27:30;;;;;;;5.47;4.50;;;6.50;99.90;;;;;;502107;236;27455;-73
2024/01/30 02:29:32;;;;;;;4.82;3.90;;;6.50;99.90;;;;;;502134;236;27810;-71
2024/01/30 02:31:33;;;;;;;5.78;4.37;;;6.40;99.90;;;;;;502980;236;28079;-72
2024/01/30 02:33:34;;;;;;;5.68;4.20;;;6.40;99.90;;;;;;503047;236;27500;-71
2024/01/30 02:35:35;;;;;;;4.12;3.72;;;6.30;99.90;;;;;;503005;236;27489;-71
2024/01/30 02:37:37;;;;;;;4.75;4.32;;;6.40;99.90;;;;;;503058;236;27639;-73
2024/01/30 02:39:38;;;;;;;5.33;4.10;;;6.30;99.90;;;;;;503075;236;27450;-71
2024/01/30 02:41:39;;;;;;;5.70;4.32;;;6.30;99.90;;;;;;503041;236;28130;-71
2024/01/30 02:43:40;;;;;;;7.28;4.35;;;6.40;99.90;;;;;;503025;236;27449;-71
2024/01/30 02:45:42;;;;;;;6.12;4.85;;;6.30;99.90;;;;;;503046;236;27903;-72
2024/01/30 02:47:43;;;;;;;5.47;4.22;;;6.30;99.90;;;;;;503090;236;27524;-72
2024/01/30 02:49:44;;;;;;;7.05;4.60;;;6.30;99.90;;;;;;503026;236;27501;-71
2024/01/30 02:51:46;;;;;;;8.18;4.53;;;6.40;99.90;;;;;;503019;236;27564;-71
2024/01/30 02:53:47;;;;;;;6.43;4.47;;;6.50;99.90;;;;;;503034;236;27865;-74
2024/01/30 02:55:48;;;;;;;5.93;4.25;;;6.50;99.90;;;;;;503006;236;27511;-71
2024/01/30 02:57:49;;;;;;;5.00;4.60;;;6.40;99.90;;;;;;503039;236;28055;-71
2024/01/30 02:59:51;;;;;;;6.12;4.37;;;6.40;99.90;;;;;;503043;236;28034;-71
2024/01/30 03:01:52;;;;;;;6.07;4.57;;;6.40;99.90;;;;;;503050;236;27536;-72
2024/01/30 03:03:53;;;;;;;5.22;3.80;;;6.50;99.90;;;;;;503081;236;27484;-72
2024/01/30 03:05:54;;;;;;;10.77;5.10;;;6.50;99.90;;;;;;503003;236;27494;-71
2024/01/30 03:07:56;;;;;;;9.75;7.50;;;6.50;99.90;;;;;;503008;236;27490;-71
2024/01/30 03:09:57;;;;;;;10.48;7.22;;;6.50;99.90;;;;;;502795;236;28018;-71
2024/01/30 03:11:58;;;;;;;8.15;5.25;;;6.50;99.90;;;;;;502886;236;27908;-71
2024/01/30 03:13:59;;;;;;;5.95;4.90;;;6.50;99.90;;;;;;503038;236;27479;-71
2024/01/30 03:16:01;;;;;;;6.18;4.47;;;6.40;99.90;;;;;;503014;236;27516;-70
2024/01/30 03:18:03;;;;;;;10.73;4.55;;;6.40;99.90;;;;;;503011;236;27482;-72
2024/01/30 03:20:03;;;;;;;5.90;4.30;;;6.40;99.90;;;;;;503005;236;27521;-73
2024/01/30 03:22:04;;;;;;;7.95;4.07;;;6.30;99.90;;;;;;503058;236;27509;-71
2024/01/30 03:24:06;;;;;;;6.45;4.80;;;6.30;99.90;;;;;;503057;236;27479;-72
2024/01/30 03:26:09;;;;;;;6.05;4.43;;;6.40;99.90;;;;;;502942;236;27493;-71
2024/01/30 03:28:08;;;;;;;5.35;4.40;;;6.30;99.90;;;;;;502920;236;27458;-71
2024/01/30 03:30:09;;;;;;;4.75;4.05;;;6.30;99.90;;;;;;503079;236;27482;-72
2024/01/30 03:32:11;;;;;;;5.03;4.00;;;6.40;99.90;;;;;;503037;236;27895;-71
2024/01/30 03:34:12;;;;;;;5.15;4.50;;;6.40;99.90;;;;;;503034;236;27977;-71
2024/01/30 03:36:13;;;;;;;6.12;4.37;;;6.40;99.90;;;;;;503030;236;27490;-71
2024/01/30 03:38:15;;;;;;;4.93;3.80;;;6.40;99.90;;;;;;503038;236;27480;-71
2024/01/30 03:40:16;;;;;;;4.82;3.85;;;6.40;99.90;;;;;;503004;236;27517;-72
2024/01/30 03:42:17;;;;;;;4.87;3.97;;;6.40;99.90;;;;;;502993;236;27442;-73
2024/01/30 03:44:18;;;;;;;6.18;4.25;;;6.40;99.90;;;;;;503011;236;27500;-71
2024/01/30 03:46:20;;;;;;;7.55;4.43;;;6.50;99.90;;;;;;503035;236;27962;-73
2024/01/30 03:48:21;;;;;;;4.93;4.10;;;6.50;99.90;;;;;;503056;236;28019;-71
2024/01/30 03:50:22;;;;;;;5.55;4.18;;;6.50;99.90;;;;;;503061;236;27469;-72
2024/01/30 03:52:23;;;;;;;6.93;4.55;;;6.40;99.90;;;;;;503029;236;27521;-69
2024/01/30 03:54:25;;;;;;;5.37;4.03;;;6.40;99.90;;;;;;503053;236;27516;-71
2024/01/30 03:56:26;;;;;;;4.30;3.90;;;6.40;99.90;;;;;;502996;236;28880;-71
2024/01/30 03:58:27;;;;;;;6.00;4.43;;;6.40;99.90;;;;;;503045;236;27442;-71
2024/01/30 04:00:28;;;;;;;6.12;4.15;;;6.40;99.90;;;;;;503061;236;27954;-71
2024/01/30 04:02:30;;;;;;;5.10;4.03;;;6.40;99.90;;;;;;503071;236;27565;-71
2024/01/30 04:04:31;;;;;;;5.57;4.20;;;6.40;99.90;;;;;;503028;236;27434;-71
2024/01/30 04:06:32;;;;;;;4.43;3.90;;;6.40;99.90;;;;;;503022;236;27489;-69
2024/01/30 04:08:33;;;;;;;5.05;3.92;;;6.40;99.90;;;;;;502998;236;27493;-69
2024/01/30 04:10:35;;;;;;;5.55;4.18;;;6.30;99.90;;;;;;502974;236;27517;-71
2024/01/30 04:12:36;;;;;;;5.43;4.03;;;6.40;99.90;;;;;;503034;236;27966;-74
2024/01/30 04:14:37;;;;;;;4.20;3.80;;;6.30;99.90;;;;;;503041;236;27889;-71
2024/01/30 04:16:38;;;;;;;6.70;3.95;;;6.30;99.90;;;;;;503046;236;27462;-71
2024/01/30 04:18:40;;;;;;;7.07;4.62;;;6.20;99.90;;;;;;503049;236;27448;-71
2024/01/30 04:20:41;;;;;;;5.03;4.37;;;6.20;99.90;;;;;;503057;236;27453;-72
2024/01/30 04:22:42;;;;;;;4.25;3.85;;;6.10;99.90;;;;;;503075;236;27498;-72
2024/01/30 04:24:43;;;;;;;4.97;4.22;;;6.10;99.90;;;;;;503087;236;27430;-71
2024/01/30 04:26:45;;;;;;;7.65;4.30;;;6.10;99.90;;;;;;503013;236;27517;-72
2024/01/30 04:28:46;;;;;;;5.47;4.50;;;6.00;99.90;;;;;;502998;236;28042;-71
2024/01/30 04:30:47;;;;;;;7.60;4.15;;;6.10;99.90;;;;;;503047;236;27901;-71
2024/01/30 04:32:48;;;;;;;4.18;3.78;;;6.00;99.90;;;;;;503023;236;27548;-73
2024/01/30 04:34:50;;;;;;;5.75;4.28;;;6.00;99.90;;;;;;503025;236;27474;-71
2024/01/30 04:36:51;;;;;;;4.40;4.00;;;6.00;99.90;;;;;;502987;236;27560;-72
2024/01/30 04:38:52;;;;;;;6.47;4.47;;;5.90;99.90;;;;;;503044;236;27827;-73
2024/01/30 04:40:54;;;;;;;4.68;4.00;;;5.90;99.90;;;;;;503032;236;27453;-71
2024/01/30 04:42:55;;;;;;;6.90;4.93;;;5.90;99.90;;;;;;503034;236;27980;-71
2024/01/30 04:44:56;;;;;;;8.05;4.45;;;5.80;99.90;;;;;;503000;236;27905;-71
2024/01/30 04:47:01;;;;;;;7.40;4.45;;;5.90;99.90;;;;;;503002;236;27466;-69
2024/01/30 04:48:59;;;;;;;6.00;4.35;;;5.90;99.90;;;;;;502758;236;27482;-70
2024/01/30 04:51:02;;;;;;;5.00;4.32;;;5.90;99.90;;;;;;503057;236;27459;-69
2024/01/30 04:53:01;;;;;;;5.25;3.97;;;6.00;99.90;;;;;;502814;236;27493;-69
2024/01/30 04:55:02;;;;;;;6.43;4.47;;;6.00;99.90;;;;;;503040;236;27483;-69
2024/01/30 04:57:05;;;;;;;6.70;4.60;;;6.10;99.90;;;;;;503025;236;27902;-69
2024/01/30 04:59:05;;;;;;;9.05;4.53;;;6.10;99.90;;;;;;502927;236;27985;-70
2024/01/30 05:01:06;;;;;;;6.70;4.65;;;6.10;99.90;;;;;;503041;236;27451;-69
2024/01/30 05:03:07;;;;;;;5.53;4.15;;;6.10;99.90;;;;;;502976;236;27489;-71
2024/01/30 05:05:09;;;;;;;6.70;4.35;;;6.00;99.90;;;;;;503033;236;27482;-72
2024/01/30 05:07:10;;;;;;;4.97;4.47;;;6.00;99.90;;;;;;503075;236;27469;-71
2024/01/30 05:09:12;;;;;;;5.50;4.35;;;6.00;99.90;;;;;;502357;236;27497;-72
2024/01/30 05:11:12;;;;;;;4.87;3.75;;;5.90;99.90;;;;;;502141;236;27330;-71
2024/01/30 05:13:14;;;;;;;6.22;5.12;;;5.90;99.90;;;;;;502133;236;27342;-71
2024/01/30 05:15:15;;;;;;;4.80;4.30;;;6.00;99.90;;;;;;502100;236;27840;-72
2024/01/30 05:17:16;;;;;;;4.12;3.72;;;6.00;99.90;;;;;;502121;236;27775;-71
2024/01/30 05:19:18;;;;;;;5.07;4.47;;;5.90;99.90;;;;;;502118;236;27479;-72
2024/01/30 05:21:19;;;;;;;9.60;4.40;;;5.90;99.90;;;;;;502139;236;27353;-71
2024/01/30 05:23:20;;;;;;;8.15;5.05;;;6.00;99.90;;;;;;502151;236;27344;-71
2024/01/30 05:25:21;;;;;;;4.60;3.90;;;6.00;99.90;;;;;;502076;236;27441;-71
2024/01/30 05:27:23;;;;;;;7.12;4.53;;;5.90;99.90;;;;;;502143;236;27341;-69
2024/01/30 05:29:24;;;;;;;8.18;4.57;;;5.90;99.90;;;;;;502127;236;27459;-70
2024/01/30 05:31:27;;;;;;;7.03;4.30;;;5.90;99.90;;;;;;502169;236;27929;-74
2024/01/30 05:33:26;;;;;;;6.40;4.90;;;5.90;99.90;;;;;;502048;237;27812;-72
2024/01/30 05:35:28;;;;;;;7.40;5.50;;;5.90;99.90;;;;;;502080;236;27463;-72
2024/01/30 05:37:29;;;;;;;5.43;4.90;;;5.90;99.90;;;;;;502132;236;27334;-71
2024/01/30 05:39:32;;;;;;;6.22;4.55;;;5.90;99.90;;;;;;502128;236;27372;-71
2024/01/30 05:41:31;;;;;;;6.72;4.93;;;5.90;99.90;;;;;;502002;237;27475;-73
2024/01/30 05:43:33;;;;;;;5.20;4.70;;;5.90;99.90;;;;;;502133;237;27358;-71
2024/01/30 05:45:35;;;;;;;6.53;4.68;;;5.90;99.90;;;;;;502110;236;27959;-72
2024/01/30 05:47:35;;;;;;;5.45;4.95;;;5.90;99.90;;;;;;502065;237;28007;-71
2024/01/30 05:49:36;;;;;;;7.70;5.93;;;5.90;99.90;;;;;;502131;236;27401;-71
2024/01/30 05:51:38;;;;;;;7.00;5.07;;;5.90;99.90;;;;;;502133;236;27456;-74
2024/01/30 05:53:39;;;;;;;9.50;5.60;;;5.90;99.90;;;;;;502072;236;27338;-71
2024/01/30 05:55:40;;;;;;;7.37;5.05;;;5.90;99.90;;;;;;502052;236;27362;-71
2024/01/30 05:57:41;;;;;;;6.85;5.18;;;5.90;99.90;;;;;;502136;236;27470;-74
2024/01/30 05:59:43;;;;;;;7.22;4.90;;;5.90;99.90;;;;;;502107;237;27849;-71
2024/01/30 06:01:44;;;;;;;5.65;5.00;;;5.90;99.90;;;;;;502086;236;27916;-72
2024/01/30 06:03:45;;;;;;;5.40;4.87;;;5.90;99.90;;;;;;502103;237;27381;-69
2024/01/30 06:05:46;;;;;;;5.70;4.87;;;5.80;99.90;;;;;;502088;236;27350;-69
2024/01/30 06:07:48;;;;;;;6.05;4.72;;;5.80;99.90;;;;;;502098;236;27464;-73
2024/01/30 06:09:49;;;;;;;6.03;4.82;;;5.80;99.90;;;;;;502110;236;27333;-71
2024/01/30 06:11:50;;;;;;;6.93;4.87;;;5.80;99.90;;;;;;502089;236;27464;-72
2024/01/30 06:13:51;;;;;;;5.50;4.65;;;5.90;99.90;;;;;;502087;236;27983;-72
2024/01/30 06:15:53;;;;;;;7.95;5.05;;;5.90;99.90;;;;;;502093;236;27895;-71
2024/01/30 06:17:54;;;;;;;5.70;4.40;;;5.80;99.90;;;;;;502113;237;27447;-72
2024/01/30 06:19:55;;;;;;;9.27;4.70;;;5.80;99.90;;;;;;501956;237;27373;-71
2024/01/30 06:21:57;;;;;;;7.97;5.05;;;5.80;99.90;;;;;;502089;236;27374;-72
2024/01/30 06:23:58;;;;;;;4.93;4.20;;;5.80;99.90;;;;;;502130;236;27463;-72
2024/01/30 06:25:59;;;;;;;7.65;4.80;;;5.80;99.90;;;;;;502079;236;27370;-71
2024/01/30 06:28:00;;;;;;;6.62;5.25;;;5.80;99.90;;;;;;502046;236;27845;-71
2024/01/30 06:30:02;;;;;;;6.82;5.10;;;5.80;99.90;;;;;;502149;236;28110;-74
2024/01/30 06:32:03;;;;;;;6.30;5.00;;;5.70;99.90;;;;;;502101;236;27358;-72
2024/01/30 06:34:04;;;;;;;10.80;5.15;;;5.70;99.90;;;;;;502107;236;27452;-72
2024/01/30 06:36:06;;;;;;;5.37;4.37;;;5.70;99.90;;;;;;502025;236;27373;-71
2024/01/30 06:38:07;;;;;;;7.18;5.15;;;5.70;99.90;;;;;;502063;236;27495;-71
2024/01/30 06:40:08;;;;;;;6.43;4.72;;;5.60;99.90;;;;;;501372;235;27362;-72
2024/01/30 06:42:09;;;;;;;13.43;9.60;;;5.60;99.90;;;;;;501902;236;28039;-71
2024/01/30 06:44:11;;;;;;;33.33;23.42;;;5.50;99.90;;;;;;501979;236;27832;-71
2024/01/30 06:46:12;;;;;;;14.50;8.80;;;5.50;99.90;;;;;;502778;236;27390;-71
2024/01/30 06:48:13;;;;;;;11.82;8.70;;;5.40;99.90;;;;;;502922;236;27450;-71
2024/01/30 06:50:14;;;;;;;11.65;7.47;;;5.40;99.90;;;;;;502792;236;27441;-72
2024/01/30 06:52:16;;;;;;;8.30;6.47;;;5.50;99.90;;;;;;502926;236;27493;-71
2024/01/30 06:54:17;;;;;;;11.45;6.15;;;5.50;99.90;;;;;;502870;236;27498;-71
2024/01/30 06:56:21;;;;;;;9.32;5.10;;;5.50;99.90;;;;;;502929;236;27989;-71
2024/01/30 06:58:22;;;;;;;9.77;5.75;;;5.60;99.90;;;;;;502951;236;27832;-71
2024/01/30 07:00:23;;;;;;;6.82;5.45;;;5.60;99.90;;;;;;502891;236;27400;-71
2024/01/30 07:02:25;;;;;;;7.30;5.10;;;5.60;99.90;;;;;;502952;236;27551;-72
2024/01/30 07:04:26;;;;;;;6.90;5.40;;;5.60;99.90;;;;;;502577;235;27962;-72
2024/01/30 07:06:27;;;;;;;10.30;5.60;;;5.60;99.90;;;;;;494117;236;28040;-71
2024/01/30 07:08:28;;;;;;;6.50;4.78;;;5.60;99.90;;;;;;494014;240;27536;-74
2024/01/30 07:10:31;;;;;;;9.25;5.80;;;5.70;99.90;;;;;;493435;236;27404;-71
2024/01/30 07:12:31;;;;;;;6.30;5.05;;;5.80;99.90;;;;;;492640;241;27478;-72
2024/01/30 07:14:32;;;;;;;6.07;4.47;;;5.80;99.90;;;;;;500849;236;27369;-73
2024/01/30 07:16:33;;;;;;;7.07;5.85;;;5.80;99.90;;;;;;493954;240;27456;-71
2024/01/30 07:18:35;;;;;;;6.75;4.82;;;5.70;99.90;;;;;;493922;240;27579;-74
2024/01/30 07:20:36;;;;;;;10.00;4.87;;;5.80;99.90;;;;;;493354;236;28001;-72
2024/01/30 07:22:37;;;;;;;7.12;5.37;;;5.80;99.90;;;;;;492675;241;28113;-72
2024/01/30 07:24:38;;;;;;;5.18;4.68;;;5.80;99.90;;;;;;492730;236;27434;-72
2024/01/30 07:26:40;;;;;;;7.85;5.25;;;5.80;99.90;;;;;;502887;236;27542;-71
2024/01/30 07:28:41;;;;;;;5.87;4.95;;;5.80;99.90;;;;;;502987;236;27568;-72
2024/01/30 07:30:42;;;;;;;5.55;4.37;;;5.90;99.90;;;;;;498216;236;27463;-71
2024/01/30 07:32:43;;;;;;;5.50;4.62;;;5.90;99.90;;;;;;498297;236;27490;-72
2024/01/30 07:34:45;;;;;;;5.65;4.90;;;5.90;99.90;;;;;;497884;236;28221;-71
2024/01/30 07:36:47;;;;;;;8.05;5.05;;;6.00;99.90;;;;;;500569;236;28032;-71
2024/01/30 07:38:47;;;;;;;7.32;5.07;;;6.00;99.90;;;;;;498386;238;27397;-72
2024/01/30 07:40:49;;;;;;;7.05;5.95;;;6.10;99.90;;;;;;500889;236;27509;-71
2024/01/30 07:42:50;;;;;;;9.43;5.62;;;6.10;99.90;;;;;;502980;236;27565;-71
2024/01/30 07:44:51;;;;;;;6.75;4.95;;;6.30;99.90;;;;;;502959;236;27839;-73
2024/01/30 07:46:52;;;;;;;7.82;5.57;;;6.30;99.90;;;;;;502949;236;27942;-71
2024/01/30 07:48:55;;;;;;;5.95;4.68;;;6.30;99.90;;;;;;502971;236;28056;-71
2024/01/30 07:50:55;;;;;;;10.15;8.52;;;6.30;99.90;;;;;;497738;236;27501;-71
2024/01/30 07:52:56;;;;;;;7.50;6.70;;;6.40;99.90;;;;;;494038;240;27515;-71
2024/01/30 07:54:57;;;;;;;22.37;20.05;;;6.40;99.90;;;;;;498167;235;27516;-72
2024/01/30 08:02:15;;;;;;;9.07;8.00;;;6.60;99.90;;;;;;503012;236;27319;-71
2024/01/30 08:04:17;;;;;;;8.40;7.22;;;6.60;99.90;;;;;;502972;236;28025;-72
2024/01/30 08:06:18;;;;;;;9.10;7.20;;;6.60;99.90;;;;;;502827;236;28007;-71
2024/01/30 08:08:19;;;;;;;10.75;9.65;;;6.60;99.90;;;;;;502986;236;27574;-74
2024/01/30 08:10:21;;;;;;;11.52;8.00;;;6.70;99.90;;;;;;501049;236;27520;-71
2024/01/30 08:12:22;;;;;;;8.52;7.37;;;6.70;99.90;;;;;;494020;240;27527;-71
2024/01/30 08:14:23;;;;;;;8.07;7.20;;;6.70;99.90;;;;;;494025;240;27523;-71
2024/01/30 08:16:24;;;;;;;10.30;7.80;;;6.70;99.90;;;;;;493068;236;27601;-70
2024/01/30 08:18:26;;;;;;;9.93;7.57;;;6.80;99.90;;;;;;492711;241;28547;-72
2024/01/30 08:20:27;;;;;;;10.73;8.10;;;6.80;99.90;;;;;;494885;236;27895;-72
2024/01/30 08:22:28;;;;;;;22.17;13.03;;;6.80;99.90;;;;;;502952;236;27475;-73
2024/01/30 08:24:29;;;;;;;34.30;20.30;;;6.90;99.90;;;;;;496709;236;28728;-72
2024/01/30 08:26:31;;;;;;;17.77;11.73;;;6.90;99.90;;;;;;492399;241;28454;-71
2024/01/30 08:28:32;;;;;;;14.83;8.70;;;7.00;99.90;;;;;;492518;236;28391;-73
2024/01/30 08:30:33;;;;;;;12.17;6.60;;;7.00;99.90;;;;;;492640;241;27543;-72
2024/01/30 08:32:35;;;;;;;14.70;7.80;;;7.00;99.90;;;;;;492708;241;28716;-72
2024/01/30 08:34:36;;;;;;;13.73;9.17;;;7.00;99.90;;;;;;499088;236;28580;-74
2024/01/30 08:36:37;;;;;;;14.57;10.43;;;7.10;99.90;;;;;;502935;236;27864;-72
2024/01/30 08:38:38;;;;;;;10.80;8.03;;;7.10;99.90;;;;;;502844;236;27849;-72
2024/01/30 08:40:39;;;;;;;8.50;6.93;;;7.20;99.90;;;;;;502820;236;27911;-72
2024/01/30 08:42:41;;;;;;;14.20;9.37;;;7.20;99.90;;;;;;502962;236;28004;-72
2024/01/30 08:44:42;;;;;;;8.80;6.37;;;7.20;99.90;;;;;;502904;236;27931;-74
2024/01/30 08:46:43;;;;;;;16.03;9.17;;;7.30;99.90;;;;;;502951;236;27901;-73
2024/01/30 08:48:44;;;;;;;8.70;7.00;;;7.40;99.90;;;;;;501408;236;28063;-73
2024/01/30 08:50:46;;;;;;;8.20;6.47;;;7.40;99.90;;;;;;492625;241;27877;-73
2024/01/30 08:52:47;;;;;;;11.20;6.30;;;7.40;99.90;;;;;;492286;241;27829;-72
2024/01/30 08:54:48;;;;;;;8.77;6.70;;;7.40;99.90;;;;;;492585;241;27787;-75
2024/01/30 08:56:49;;;;;;;7.53;6.07;;;7.40;99.90;;;;;;492456;241;27545;-73
2024/01/30 08:58:51;;;;;;;13.30;8.90;;;7.50;99.90;;;;;;492723;241;28429;-73
2024/01/30 09:00:52;;;;;;;18.17;10.80;;;7.50;99.90;;;;;;493756;235;28314;-72
2024/01/30 09:02:53;;;;;;;13.80;7.53;;;7.60;99.90;;;;;;493895;240;28410;-73
2024/01/30 09:04:54;;;;;;;8.30;6.53;;;7.60;99.90;;;;;;494018;240;27990;-73
2024/01/30 09:06:56;;;;;;;9.80;7.20;;;7.60;99.90;;;;;;494039;236;27782;-73
2024/01/30 09:08:57;;;;;;;9.33;7.10;;;7.70;99.90;;;;;;493968;240;27872;-73
2024/01/30 09:10:58;;;;;;;8.77;6.30;;;7.70;99.90;;;;;;501476;236;27853;-73
2024/01/30 09:12:59;;;;;;;9.50;7.67;;;7.70;99.90;;;;;;503009;236;27921;-72
2024/01/30 09:15:01;;;;;;;8.23;6.07;;;7.80;99.90;;;;;;502713;236;27895;-73
2024/01/30 09:17:03;;;;;;;9.03;6.10;;;7.90;99.90;;;;;;502850;236;27958;-72
2024/01/30 09:19:03;;;;;;;9.43;6.87;;;7.90;99.90;;;;;;502977;236;27848;-73
2024/01/30 09:21:04;;;;;;;9.77;5.70;;;8.00;99.90;;;;;;502777;236;27920;-73
2024/01/30 09:23:06;;;;;;;8.33;6.23;;;8.00;99.90;;;;;;502864;236;27914;-72
2024/01/30 09:25:07;;;;;;;10.43;5.80;;;8.10;99.90;;;;;;502950;236;28120;-75
2024/01/30 09:27:08;;;;;;;9.57;7.20;;;8.00;99.90;;;;;;494906;236;27968;-73
2024/01/30 09:29:10;;;;;;;7.13;5.37;;;8.10;99.90;;;;;;494016;240;28035;-72
2024/01/30 09:31:11;;;;;;;8.60;5.80;;;8.10;99.90;;;;;;494070;236;27663;-73
2024/01/30 09:33:12;;;;;;;9.70;6.97;;;8.10;99.90;;;;;;493950;240;27896;-73
2024/01/30 09:35:13;;;;;;;11.40;7.50;;;8.10;99.90;;;;;;493928;240;28059;-73
2024/01/30 09:37:16;;;;;;;9.70;6.00;;;8.20;99.90;;;;;;492831;236;27686;-75
2024/01/30 09:39:16;;;;;;;7.13;6.00;;;8.20;99.90;;;;;;492500;241;28491;-73
2024/01/30 09:41:17;;;;;;;7.23;5.50;;;8.10;99.90;;;;;;492606;236;28405;-73
2024/01/30 09:43:18;;;;;;;7.43;5.60;;;8.20;99.90;;;;;;492566;241;27975;-73
2024/01/30 09:45:20;;;;;;;9.13;7.10;;;8.20;99.90;;;;;;492613;241;28598;-73
2024/01/30 09:47:21;;;;;;;10.80;6.77;;;8.30;99.90;;;;;;493951;236;28429;-74
2024/01/30 09:49:24;;;;;;;8.40;6.90;;;8.30;99.90;;;;;;493794;240;28070;-73
2024/01/30 09:51:23;;;;;;;9.33;8.10;;;8.50;99.90;;;;;;493373;236;28042;-74
2024/01/30 09:53:25;;;;;;;10.60;7.03;;;8.50;99.90;;;;;;492676;241;27637;-73
2024/01/30 09:55:26;;;;;;;9.40;6.60;;;8.60;99.90;;;;;;492700;241;28004;-73
2024/01/30 09:57:27;;;;;;;9.87;5.70;;;8.70;99.90;;;;;;492762;236;28062;-75
2024/01/30 09:59:28;;;;;;;11.23;5.93;;;8.70;99.90;;;;;;492746;241;27989;-73
2024/01/30 10:01:30;;;;;;;11.73;6.23;;;8.70;99.90;;;;;;501839;236;27559;-72
2024/01/30 10:03:31;;;;;;;8.20;5.70;;;8.70;99.90;;;;;;502803;236;27949;-73
2024/01/30 10:05:35;;;;;;;7.13;5.10;;;8.70;99.90;;;;;;502985;236;27787;-72
2024/01/30 10:07:36;;;;;;;8.60;5.17;;;8.70;99.90;;;;;;502938;236;28639;-73
2024/01/30 10:09:38;;;;;;;8.73;5.60;;;8.80;99.90;;;;;;502952;236;28595;-73
2024/01/30 10:11:39;;;;;;;7.73;5.60;;;8.80;99.90;;;;;;502692;236;27860;-72
2024/01/30 10:13:40;;;;;;;6.37;5.47;;;8.90;99.90;;;;;;503007;236;27902;-73
2024/01/30 10:15:41;;;;;;;8.30;5.70;;;9.00;99.90;;;;;;502915;236;27671;-76
2024/01/30 10:17:43;;;;;;;6.93;5.93;;;9.10;99.90;;;;;;493820;240;27462;-73
2024/01/30 10:19:44;;;;;;;6.83;5.30;;;9.20;99.90;;;;;;493865;240;28010;-73
2024/01/30 10:21:45;;;;;;;8.47;5.60;;;9.30;99.90;;;;;;493665;240;27987;-73
2024/01/30 10:23:46;;;;;;;7.53;5.50;;;9.40;99.90;;;;;;493792;240;27939;-73
2024/01/30 10:25:48;;;;;;;6.80;5.00;;;9.50;99.90;;;;;;493868;240;28147;-74
2024/01/30 10:27:49;;;;;;;6.10;4.97;;;9.60;99.90;;;;;;494023;240;27960;-73
2024/01/30 10:29:50;;;;;;;8.57;5.40;;;9.60;99.90;;;;;;493939;240;28114;-73
2024/01/30 10:31:51;;;;;;;7.13;5.20;;;9.50;99.90;;;;;;493948;240;27876;-74
2024/01/30 10:33:53;;;;;;;8.60;5.83;;;9.60;99.90;;;;;;494002;240;28376;-73
2024/01/30 10:35:54;;;;;;;8.97;5.63;;;9.50;99.90;;;;;;493902;240;27990;-73
2024/01/30 10:37:55;;;;;;;6.10;5.50;;;9.40;99.90;;;;;;493934;240;27928;-72
2024/01/30 10:39:56;;;;;;;7.97;5.77;;;9.40;99.90;;;;;;493979;240;28009;-73
2024/01/30 10:41:58;;;;;;;9.50;6.63;;;9.30;99.90;;;;;;494071;240;28105;-74
2024/01/30 10:43:59;;;;;;;8.40;6.00;;;9.30;99.90;;;;;;494083;240;28563;-72